sensor_id;sensor_type;location;lat;lon;timestamp;P1;durP1;ratioP1;P2;durP2;ratioP2
73104;SDS011;61296;50.526;30.792;2023-09-19T00:01:01;16.38;;;10.35;;
73104;SDS011;61296;50.526;30.792;2023-09-19T00:16:22;20.70;;;11.05;;
73104;SDS011;61296;50.526;30.792;2023-09-19T00:31:44;15.75;;;10.38;;
73104;SDS011;61296;50.526;30.792;2023-09-19T00:47:04;15.30;;;10.57;;
73104;SDS011;61296;50.526;30.792;2023-09-19T01:02:23;15.32;;;10.70;;
73104;SDS011;61296;50.526;30.792;2023-09-19T01:17:46;16.95;;;10.82;;
73104;SDS011;61296;50.526;30.792;2023-09-19T01:33:12;16.83;;;10.90;;
73104;SDS011;61296;50.526;30.792;2023-09-19T02:04:06;16.02;;;11.52;;
73104;SDS011;61296;50.526;30.792;2023-09-19T02:19:26;16.15;;;11.10;;
73104;SDS011;61296;50.526;30.792;2023-09-19T02:34:45;16.77;;;11.80;;
73104;SDS011;61296;50.526;30.792;2023-09-19T02:50:04;20.27;;;12.15;;
73104;SDS011;61296;50.526;30.792;2023-09-19T03:05:24;16.38;;;12.07;;
73104;SDS011;61296;50.526;30.792;2023-09-19T03:20:52;18.42;;;11.98;;
73104;SDS011;61296;50.526;30.792;2023-09-19T03:36:14;19.33;;;12.18;;
73104;SDS011;61296;50.526;30.792;2023-09-19T03:51:33;19.52;;;12.52;;
73104;SDS011;61296;50.526;30.792;2023-09-19T04:06:53;19.40;;;11.88;;
73104;SDS011;61296;50.526;30.792;2023-09-19T04:22:12;19.13;;;11.90;;
73104;SDS011;61296;50.526;30.792;2023-09-19T04:37:31;16.98;;;11.18;;
73104;SDS011;61296;50.526;30.792;2023-09-19T04:52:51;16.27;;;11.18;;
73104;SDS011;61296;50.526;30.792;2023-09-19T05:08:10;16.13;;;10.20;;
73104;SDS011;61296;50.526;30.792;2023-09-19T05:23:30;14.95;;;9.70;;
73104;SDS011;61296;50.526;30.792;2023-09-19T05:38:49;18.38;;;10.85;;
73104;SDS011;61296;50.526;30.792;2023-09-19T05:54:11;19.08;;;10.35;;
73104;SDS011;61296;50.526;30.792;2023-09-19T06:09:30;18.02;;;9.70;;
73104;SDS011;61296;50.526;30.792;2023-09-19T06:24:50;14.77;;;8.55;;
73104;SDS011;61296;50.526;30.792;2023-09-19T06:40:13;14.57;;;8.20;;
73104;SDS011;61296;50.526;30.792;2023-09-19T06:55:33;14.07;;;8.43;;
73104;SDS011;61296;50.526;30.792;2023-09-19T07:10:52;12.05;;;8.05;;
73104;SDS011;61296;50.526;30.792;2023-09-19T07:26:12;17.20;;;7.90;;
73104;SDS011;61296;50.526;30.792;2023-09-19T07:41:32;14.90;;;6.70;;
73104;SDS011;61296;50.526;30.792;2023-09-19T07:56:52;9.13;;;6.72;;
73104;SDS011;61296;50.526;30.792;2023-09-19T08:12:12;9.52;;;6.80;;
73104;SDS011;61296;50.526;30.792;2023-09-19T08:27:31;10.80;;;6.55;;
73104;SDS011;61296;50.526;30.792;2023-09-19T08:42:50;7.75;;;5.47;;
73104;SDS011;61296;50.526;30.792;2023-09-19T08:58:17;57.08;;;7.30;;
73104;SDS011;61296;50.526;30.792;2023-09-19T09:13:40;12.18;;;4.60;;
73104;SDS011;61296;50.526;30.792;2023-09-19T09:29:00;9.80;;;4.28;;
73104;SDS011;61296;50.526;30.792;2023-09-19T09:44:19;40.55;;;5.10;;
73104;SDS011;61296;50.526;30.792;2023-09-19T10:15:10;10.38;;;4.10;;
73104;SDS011;61296;50.526;30.792;2023-09-19T10:30:31;11.90;;;4.32;;
73104;SDS011;61296;50.526;30.792;2023-09-19T10:45:53;8.80;;;4.05;;
73104;SDS011;61296;50.526;30.792;2023-09-19T11:01:16;12.25;;;4.25;;
73104;SDS011;61296;50.526;30.792;2023-09-19T11:16:36;24.17;;;4.72;;
73104;SDS011;61296;50.526;30.792;2023-09-19T11:31:55;11.15;;;4.20;;
73104;SDS011;61296;50.526;30.792;2023-09-19T11:47:20;8.60;;;3.47;;
73104;SDS011;61296;50.526;30.792;2023-09-19T12:02:41;13.75;;;4.20;;
73104;SDS011;61296;50.526;30.792;2023-09-19T12:18:05;20.40;;;4.13;;
73104;SDS011;61296;50.526;30.792;2023-09-19T12:33:24;17.63;;;4.68;;
73104;SDS011;61296;50.526;30.792;2023-09-19T12:48:44;8.18;;;4.25;;
73104;SDS011;61296;50.526;30.792;2023-09-19T13:04:10;7.55;;;3.92;;
73104;SDS011;61296;50.526;30.792;2023-09-19T13:35:04;8.35;;;4.15;;
73104;SDS011;61296;50.526;30.792;2023-09-19T13:50:24;7.95;;;3.97;;
73104;SDS011;61296;50.526;30.792;2023-09-19T14:05:44;8.02;;;4.43;;
73104;SDS011;61296;50.526;30.792;2023-09-19T14:21:03;9.63;;;4.60;;
73104;SDS011;61296;50.526;30.792;2023-09-19T14:36:23;5.93;;;4.30;;
73104;SDS011;61296;50.526;30.792;2023-09-19T14:51:44;8.68;;;4.63;;
73104;SDS011;61296;50.526;30.792;2023-09-19T15:07:03;9.73;;;5.45;;
73104;SDS011;61296;50.526;30.792;2023-09-19T15:22:23;18.52;;;4.80;;
73104;SDS011;61296;50.526;30.792;2023-09-19T15:37:42;12.98;;;4.90;;
73104;SDS011;61296;50.526;30.792;2023-09-19T15:53:01;10.48;;;5.00;;
73104;SDS011;61296;50.526;30.792;2023-09-19T16:08:21;12.43;;;6.05;;
73104;SDS011;61296;50.526;30.792;2023-09-19T16:23:39;13.30;;;5.93;;
73104;SDS011;61296;50.526;30.792;2023-09-19T16:38:59;14.38;;;7.32;;
73104;SDS011;61296;50.526;30.792;2023-09-19T16:54:18;11.18;;;5.18;;
73104;SDS011;61296;50.526;30.792;2023-09-19T17:09:37;13.15;;;5.53;;
73104;SDS011;61296;50.526;30.792;2023-09-19T17:24:59;11.35;;;5.53;;
73104;SDS011;61296;50.526;30.792;2023-09-19T17:40:19;9.73;;;5.43;;
73104;SDS011;61296;50.526;30.792;2023-09-19T17:55:38;14.20;;;6.22;;
73104;SDS011;61296;50.526;30.792;2023-09-19T18:10:57;14.52;;;7.45;;
73104;SDS011;61296;50.526;30.792;2023-09-19T18:26:16;11.27;;;6.15;;
73104;SDS011;61296;50.526;30.792;2023-09-19T18:41:36;9.85;;;6.75;;
73104;SDS011;61296;50.526;30.792;2023-09-19T18:56:57;12.90;;;6.25;;
73104;SDS011;61296;50.526;30.792;2023-09-19T19:12:16;13.30;;;6.13;;
73104;SDS011;61296;50.526;30.792;2023-09-19T19:27:36;10.23;;;7.25;;
73104;SDS011;61296;50.526;30.792;2023-09-19T19:42:55;12.20;;;7.30;;
73104;SDS011;61296;50.526;30.792;2023-09-19T19:58:15;9.85;;;7.72;;
73104;SDS011;61296;50.526;30.792;2023-09-19T20:13:34;10.75;;;7.13;;
73104;SDS011;61296;50.526;30.792;2023-09-19T20:28:54;14.45;;;8.00;;
73104;SDS011;61296;50.526;30.792;2023-09-19T20:44:13;11.65;;;7.20;;
73104;SDS011;61296;50.526;30.792;2023-09-19T20:59:32;14.30;;;7.95;;
73104;SDS011;61296;50.526;30.792;2023-09-19T21:14:51;13.48;;;8.07;;
73104;SDS011;61296;50.526;30.792;2023-09-19T21:30:14;12.32;;;8.05;;
73104;SDS011;61296;50.526;30.792;2023-09-19T21:45:35;11.32;;;7.43;;
73104;SDS011;61296;50.526;30.792;2023-09-19T22:00:54;12.32;;;7.55;;
73104;SDS011;61296;50.526;30.792;2023-09-19T22:16:14;10.13;;;7.25;;
73104;SDS011;61296;50.526;30.792;2023-09-19T22:31:34;10.50;;;7.38;;
73104;SDS011;61296;50.526;30.792;2023-09-19T22:47:01;15.05;;;8.38;;
73104;SDS011;61296;50.526;30.792;2023-09-19T23:02:21;13.20;;;7.53;;
73104;SDS011;61296;50.526;30.792;2023-09-19T23:17:47;11.90;;;7.88;;
73104;SDS011;61296;50.526;30.792;2023-09-19T23:33:07;13.45;;;7.50;;
73104;SDS011;61296;50.526;30.792;2023-09-19T23:48:28;14.10;;;7.72;;
